sensor_id;sensor_type;location;lat;lon;timestamp;temperature;humidity
15013;DHT22;7603;49.432;11.418;2023-01-28T00:00:04;0.60;99.90
15013;DHT22;7603;49.432;11.418;2023-01-28T00:02:31;0.60;99.90
15013;DHT22;7603;49.432;11.418;2023-01-28T00:04:57;0.60;99.90
15013;DHT22;7603;49.432;11.418;2023-01-28T00:07:23;0.70;99.90
15013;DHT22;7603;49.432;11.418;2023-01-28T00:09:49;0.70;99.90
15013;DHT22;7603;49.432;11.418;2023-01-28T00:12:15;0.70;99.90
15013;DHT22;7603;49.432;11.418;2023-01-28T00:14:40;0.70;99.90
15013;DHT22;7603;49.432;11.418;2023-01-28T00:17:06;0.70;99.90
15013;DHT22;7603;49.432;11.418;2023-01-28T00:19:31;0.70;99.90
15013;DHT22;7603;49.432;11.418;2023-01-28T00:21:57;0.70;99.90
15013;DHT22;7603;49.432;11.418;2023-01-28T00:24:22;0.70;99.90
15013;DHT22;7603;49.432;11.418;2023-01-28T00:26:48;0.70;99.90
15013;DHT22;7603;49.432;11.418;2023-01-28T00:29:13;0.80;99.90
15013;DHT22;7603;49.432;11.418;2023-01-28T00:31:39;0.80;99.90
15013;DHT22;7603;49.432;11.418;2023-01-28T00:34:05;0.70;99.90
15013;DHT22;7603;49.432;11.418;2023-01-28T00:36:31;0.70;99.90
15013;DHT22;7603;49.432;11.418;2023-01-28T00:38:58;0.80;99.90
15013;DHT22;7603;49.432;11.418;2023-01-28T00:41:26;0.80;99.90
15013;DHT22;7603;49.432;11.418;2023-01-28T00:43:52;0.70;99.90
15013;DHT22;7603;49.432;11.418;2023-01-28T00:46:20;0.70;99.90
15013;DHT22;7603;49.432;11.418;2023-01-28T00:48:46;0.70;99.90
15013;DHT22;7603;49.432;11.418;2023-01-28T00:51:13;0.70;99.90
15013;DHT22;7603;49.432;11.418;2023-01-28T00:53:39;0.80;99.90
15013;DHT22;7603;49.432;11.418;2023-01-28T00:56:07;0.80;99.90
15013;DHT22;7603;49.432;11.418;2023-01-28T00:58:33;0.80;99.90
15013;DHT22;7603;49.432;11.418;2023-01-28T01:01:24;0.70;99.90
15013;DHT22;7603;49.432;11.418;2023-01-28T01:03:51;0.70;99.90
15013;DHT22;7603;49.432;11.418;2023-01-28T01:06:31;0.70;99.90
15013;DHT22;7603;49.432;11.418;2023-01-28T01:08:57;0.80;99.90
15013;DHT22;7603;49.432;11.418;2023-01-28T01:11:23;0.80;99.90
15013;DHT22;7603;49.432;11.418;2023-01-28T01:13:59;0.80;99.90
15013;DHT22;7603;49.432;11.418;2023-01-28T01:16:29;0.80;99.90
15013;DHT22;7603;49.432;11.418;2023-01-28T01:18:56;0.80;99.90
15013;DHT22;7603;49.432;11.418;2023-01-28T01:21:25;0.80;99.90
15013;DHT22;7603;49.432;11.418;2023-01-28T01:23:51;0.80;99.90
15013;DHT22;7603;49.432;11.418;2023-01-28T01:26:18;0.80;99.90
15013;DHT22;7603;49.432;11.418;2023-01-28T01:28:44;0.80;99.90
15013;DHT22;7603;49.432;11.418;2023-01-28T01:31:12;0.80;99.90
15013;DHT22;7603;49.432;11.418;2023-01-28T01:33:40;0.80;99.90
15013;DHT22;7603;49.432;11.418;2023-01-28T01:36:06;0.80;99.90
15013;DHT22;7603;49.432;11.418;2023-01-28T01:38:31;0.80;99.90
15013;DHT22;7603;49.432;11.418;2023-01-28T01:40:58;0.80;99.90
15013;DHT22;7603;49.432;11.418;2023-01-28T01:43:25;0.80;99.90
15013;DHT22;7603;49.432;11.418;2023-01-28T01:45:59;0.80;99.90
15013;DHT22;7603;49.432;11.418;2023-01-28T01:48:31;0.80;99.90
15013;DHT22;7603;49.432;11.418;2023-01-28T01:51:06;0.80;99.90
15013;DHT22;7603;49.432;11.418;2023-01-28T01:53:36;0.80;99.90
15013;DHT22;7603;49.432;11.418;2023-01-28T01:56:06;0.80;99.90
15013;DHT22;7603;49.432;11.418;2023-01-28T01:58:36;0.80;99.90
15013;DHT22;7603;49.432;11.418;2023-01-28T02:01:03;0.80;99.90
15013;DHT22;7603;49.432;11.418;2023-01-28T02:03:53;0.70;99.90
15013;DHT22;7603;49.432;11.418;2023-01-28T02:06:20;0.70;99.90
15013;DHT22;7603;49.432;11.418;2023-01-28T02:08:46;0.70;99.90
15013;DHT22;7603;49.432;11.418;2023-01-28T02:11:13;0.80;99.90
15013;DHT22;7603;49.432;11.418;2023-01-28T02:13:44;0.80;99.90
15013;DHT22;7603;49.432;11.418;2023-01-28T02:16:11;0.80;99.90
15013;DHT22;7603;49.432;11.418;2023-01-28T02:18:38;0.80;99.90
15013;DHT22;7603;49.432;11.418;2023-01-28T02:29:14;0.80;99.90
15013;DHT22;7603;49.432;11.418;2023-01-28T02:31:56;0.80;99.90
15013;DHT22;7603;49.432;11.418;2023-01-28T02:37:26;0.80;99.90
15013;DHT22;7603;49.432;11.418;2023-01-28T02:39:57;0.80;99.90
15013;DHT22;7603;49.432;11.418;2023-01-28T02:42:29;0.80;99.90
15013;DHT22;7603;49.432;11.418;2023-01-28T02:44:55;0.70;99.90
15013;DHT22;7603;49.432;11.418;2023-01-28T02:47:21;0.70;99.90
15013;DHT22;7603;49.432;11.418;2023-01-28T02:50:08;0.70;99.90
15013;DHT22;7603;49.432;11.418;2023-01-28T02:55:44;0.70;99.90
15013;DHT22;7603;49.432;11.418;2023-01-28T02:58:22;0.60;99.90
15013;DHT22;7603;49.432;11.418;2023-01-28T03:06:17;0.60;99.90
15013;DHT22;7603;49.432;11.418;2023-01-28T03:08:53;0.60;99.90
15013;DHT22;7603;49.432;11.418;2023-01-28T03:11:41;0.70;99.90
15013;DHT22;7603;49.432;11.418;2023-01-28T03:14:26;0.60;99.90
15013;DHT22;7603;49.432;11.418;2023-01-28T03:17:16;0.60;99.90
15013;DHT22;7603;49.432;11.418;2023-01-28T03:20:01;0.60;99.90
15013;DHT22;7603;49.432;11.418;2023-01-28T03:22:50;0.70;99.90
15013;DHT22;7603;49.432;11.418;2023-01-28T03:25:39;0.70;99.90
15013;DHT22;7603;49.432;11.418;2023-01-28T03:28:27;0.70;99.90
15013;DHT22;7603;49.432;11.418;2023-01-28T03:31:14;0.70;99.90
15013;DHT22;7603;49.432;11.418;2023-01-28T03:34:01;0.70;99.90
15013;DHT22;7603;49.432;11.418;2023-01-28T03:36:46;0.70;99.90
15013;DHT22;7603;49.432;11.418;2023-01-28T03:39:25;0.70;99.90
15013;DHT22;7603;49.432;11.418;2023-01-28T03:42:08;0.70;99.90
15013;DHT22;7603;49.432;11.418;2023-01-28T03:44:33;0.70;99.90
15013;DHT22;7603;49.432;11.418;2023-01-28T03:47:25;0.70;99.90
15013;DHT22;7603;49.432;11.418;2023-01-28T03:49:53;0.70;99.90
15013;DHT22;7603;49.432;11.418;2023-01-28T03:52:21;0.70;99.90
15013;DHT22;7603;49.432;11.418;2023-01-28T03:54:47;0.70;99.90
15013;DHT22;7603;49.432;11.418;2023-01-28T03:57:14;0.70;99.90
15013;DHT22;7603;49.432;11.418;2023-01-28T03:59:40;0.80;99.90
15013;DHT22;7603;49.432;11.418;2023-01-28T04:02:06;0.80;99.90
15013;DHT22;7603;49.432;11.418;2023-01-28T04:04:33;0.80;99.90
15013;DHT22;7603;49.432;11.418;2023-01-28T04:06:59;0.80;99.90
15013;DHT22;7603;49.432;11.418;2023-01-28T04:09:24;0.80;99.90
15013;DHT22;7603;49.432;11.418;2023-01-28T04:11:50;0.80;99.90
15013;DHT22;7603;49.432;11.418;2023-01-28T04:14:17;0.80;99.90
15013;DHT22;7603;49.432;11.418;2023-01-28T04:16:42;0.80;99.90
15013;DHT22;7603;49.432;11.418;2023-01-28T04:19:09;0.90;99.90
15013;DHT22;7603;49.432;11.418;2023-01-28T04:21:37;0.90;99.90
15013;DHT22;7603;49.432;11.418;2023-01-28T04:24:03;0.90;99.90
15013;DHT22;7603;49.432;11.418;2023-01-28T04:26:28;0.90;99.90
15013;DHT22;7603;49.432;11.418;2023-01-28T04:28:54;0.90;99.90
15013;DHT22;7603;49.432;11.418;2023-01-28T04:31:20;0.90;99.90
15013;DHT22;7603;49.432;11.418;2023-01-28T04:33:45;0.90;99.90
15013;DHT22;7603;49.432;11.418;2023-01-28T04:36:11;0.90;99.90
15013;DHT22;7603;49.432;11.418;2023-01-28T04:38:36;0.90;99.90
15013;DHT22;7603;49.432;11.418;2023-01-28T04:41:02;0.90;99.90
15013;DHT22;7603;49.432;11.418;2023-01-28T04:43:27;0.80;99.90
15013;DHT22;7603;49.432;11.418;2023-01-28T04:45:53;0.80;99.90
15013;DHT22;7603;49.432;11.418;2023-01-28T04:48:18;0.90;99.90
15013;DHT22;7603;49.432;11.418;2023-01-28T04:50:44;0.90;99.90
15013;DHT22;7603;49.432;11.418;2023-01-28T04:53:10;0.90;99.90
15013;DHT22;7603;49.432;11.418;2023-01-28T04:55:36;0.90;99.90
15013;DHT22;7603;49.432;11.418;2023-01-28T04:58:02;0.90;99.90
15013;DHT22;7603;49.432;11.418;2023-01-28T05:00:28;0.80;99.90
15013;DHT22;7603;49.432;11.418;2023-01-28T05:02:53;0.80;99.90
15013;DHT22;7603;49.432;11.418;2023-01-28T05:05:19;0.80;99.90
15013;DHT22;7603;49.432;11.418;2023-01-28T05:07:50;0.90;99.90
15013;DHT22;7603;49.432;11.418;2023-01-28T05:10:16;0.90;99.90
15013;DHT22;7603;49.432;11.418;2023-01-28T05:12:44;0.90;99.90
15013;DHT22;7603;49.432;11.418;2023-01-28T05:15:09;0.90;99.90
15013;DHT22;7603;49.432;11.418;2023-01-28T05:17:35;0.90;99.90
15013;DHT22;7603;49.432;11.418;2023-01-28T05:20:01;0.90;99.90
15013;DHT22;7603;49.432;11.418;2023-01-28T05:22:26;0.90;99.90
15013;DHT22;7603;49.432;11.418;2023-01-28T05:24:52;0.80;99.90
15013;DHT22;7603;49.432;11.418;2023-01-28T05:27:17;0.90;99.90
15013;DHT22;7603;49.432;11.418;2023-01-28T05:29:43;0.80;99.90
15013;DHT22;7603;49.432;11.418;2023-01-28T05:32:09;0.80;99.90
15013;DHT22;7603;49.432;11.418;2023-01-28T05:34:34;0.80;99.90
15013;DHT22;7603;49.432;11.418;2023-01-28T05:37:00;0.80;99.90
15013;DHT22;7603;49.432;11.418;2023-01-28T05:39:25;0.80;99.90
15013;DHT22;7603;49.432;11.418;2023-01-28T05:41:51;0.80;99.90
15013;DHT22;7603;49.432;11.418;2023-01-28T05:44:16;0.80;99.90
15013;DHT22;7603;49.432;11.418;2023-01-28T05:46:42;0.80;99.90
15013;DHT22;7603;49.432;11.418;2023-01-28T05:49:11;0.80;99.90
15013;DHT22;7603;49.432;11.418;2023-01-28T05:51:38;0.80;99.90
15013;DHT22;7603;49.432;11.418;2023-01-28T05:54:07;0.80;99.90
15013;DHT22;7603;49.432;11.418;2023-01-28T05:56:33;0.80;99.90
15013;DHT22;7603;49.432;11.418;2023-01-28T05:59:01;0.90;99.90
15013;DHT22;7603;49.432;11.418;2023-01-28T06:01:26;0.90;99.90
15013;DHT22;7603;49.432;11.418;2023-01-28T06:03:52;0.90;99.90
15013;DHT22;7603;49.432;11.418;2023-01-28T06:06:17;0.90;99.90
15013;DHT22;7603;49.432;11.418;2023-01-28T06:08:43;0.90;99.90
15013;DHT22;7603;49.432;11.418;2023-01-28T06:11:08;0.90;99.90
15013;DHT22;7603;49.432;11.418;2023-01-28T06:13:34;0.90;99.90
15013;DHT22;7603;49.432;11.418;2023-01-28T06:16:00;0.80;99.90
15013;DHT22;7603;49.432;11.418;2023-01-28T06:18:25;0.80;99.90
15013;DHT22;7603;49.432;11.418;2023-01-28T06:20:51;0.80;99.90
15013;DHT22;7603;49.432;11.418;2023-01-28T06:23:17;0.90;99.90
15013;DHT22;7603;49.432;11.418;2023-01-28T06:25:43;0.80;99.90
15013;DHT22;7603;49.432;11.418;2023-01-28T06:28:08;0.80;99.90
15013;DHT22;7603;49.432;11.418;2023-01-28T06:30:34;0.80;99.90
15013;DHT22;7603;49.432;11.418;2023-01-28T06:33:00;0.80;99.90
15013;DHT22;7603;49.432;11.418;2023-01-28T06:35:26;0.80;99.90
15013;DHT22;7603;49.432;11.418;2023-01-28T06:37:52;0.80;99.90
15013;DHT22;7603;49.432;11.418;2023-01-28T06:40:18;0.90;99.90
15013;DHT22;7603;49.432;11.418;2023-01-28T06:42:44;0.90;99.90
15013;DHT22;7603;49.432;11.418;2023-01-28T06:45:10;0.90;99.90
15013;DHT22;7603;49.432;11.418;2023-01-28T06:47:37;0.90;99.90
15013;DHT22;7603;49.432;11.418;2023-01-28T06:50:03;0.80;99.90
15013;DHT22;7603;49.432;11.418;2023-01-28T06:52:29;0.90;99.90
15013;DHT22;7603;49.432;11.418;2023-01-28T06:54:54;0.90;99.90
15013;DHT22;7603;49.432;11.418;2023-01-28T06:57:20;0.80;99.90
15013;DHT22;7603;49.432;11.418;2023-01-28T06:59:45;0.80;99.90
15013;DHT22;7603;49.432;11.418;2023-01-28T07:02:11;0.80;99.90
15013;DHT22;7603;49.432;11.418;2023-01-28T07:04:36;0.80;99.90
15013;DHT22;7603;49.432;11.418;2023-01-28T07:07:02;0.80;99.90
15013;DHT22;7603;49.432;11.418;2023-01-28T07:09:28;0.80;99.90
15013;DHT22;7603;49.432;11.418;2023-01-28T07:11:53;0.80;99.90
15013;DHT22;7603;49.432;11.418;2023-01-28T07:14:19;0.90;99.90
15013;DHT22;7603;49.432;11.418;2023-01-28T07:16:44;0.90;99.90
15013;DHT22;7603;49.432;11.418;2023-01-28T07:19:10;0.90;99.90
15013;DHT22;7603;49.432;11.418;2023-01-28T07:21:35;0.90;99.90
15013;DHT22;7603;49.432;11.418;2023-01-28T07:24:01;0.90;99.90
15013;DHT22;7603;49.432;11.418;2023-01-28T07:26:30;0.90;99.90
15013;DHT22;7603;49.432;11.418;2023-01-28T07:28:55;0.90;99.90
15013;DHT22;7603;49.432;11.418;2023-01-28T07:31:21;0.90;99.90
15013;DHT22;7603;49.432;11.418;2023-01-28T07:33:47;1.00;99.90
15013;DHT22;7603;49.432;11.418;2023-01-28T07:36:12;1.00;99.90
15013;DHT22;7603;49.432;11.418;2023-01-28T07:38:38;1.00;99.90
15013;DHT22;7603;49.432;11.418;2023-01-28T07:41:03;1.00;99.90
15013;DHT22;7603;49.432;11.418;2023-01-28T07:43:29;1.00;99.90
15013;DHT22;7603;49.432;11.418;2023-01-28T07:45:55;1.10;99.90
15013;DHT22;7603;49.432;11.418;2023-01-28T07:48:20;1.00;99.90
15013;DHT22;7603;49.432;11.418;2023-01-28T07:50:46;1.10;99.90
15013;DHT22;7603;49.432;11.418;2023-01-28T07:53:13;1.10;99.90
15013;DHT22;7603;49.432;11.418;2023-01-28T07:55:39;1.20;99.90
15013;DHT22;7603;49.432;11.418;2023-01-28T07:58:06;1.20;99.90
15013;DHT22;7603;49.432;11.418;2023-01-28T08:00:35;1.30;99.90
15013;DHT22;7603;49.432;11.418;2023-01-28T08:03:04;1.30;99.90
15013;DHT22;7603;49.432;11.418;2023-01-28T08:05:45;1.30;99.90
15013;DHT22;7603;49.432;11.418;2023-01-28T08:08:11;1.30;99.90
15013;DHT22;7603;49.432;11.418;2023-01-28T08:10:38;1.30;99.90
15013;DHT22;7603;49.432;11.418;2023-01-28T08:13:04;1.30;99.90
15013;DHT22;7603;49.432;11.418;2023-01-28T08:15:30;1.30;99.90
15013;DHT22;7603;49.432;11.418;2023-01-28T08:17:57;1.40;99.90
15013;DHT22;7603;49.432;11.418;2023-01-28T08:20:24;1.40;99.90
15013;DHT22;7603;49.432;11.418;2023-01-28T08:22:50;1.40;99.90
15013;DHT22;7603;49.432;11.418;2023-01-28T08:25:16;1.50;99.90
15013;DHT22;7603;49.432;11.418;2023-01-28T08:27:41;1.50;99.90
15013;DHT22;7603;49.432;11.418;2023-01-28T08:30:07;1.50;99.90
15013;DHT22;7603;49.432;11.418;2023-01-28T08:32:34;1.60;99.90
15013;DHT22;7603;49.432;11.418;2023-01-28T08:35:00;1.60;99.90
15013;DHT22;7603;49.432;11.418;2023-01-28T08:37:25;1.60;99.90
15013;DHT22;7603;49.432;11.418;2023-01-28T08:39:51;1.60;99.90
15013;DHT22;7603;49.432;11.418;2023-01-28T08:42:17;1.60;99.90
15013;DHT22;7603;49.432;11.418;2023-01-28T08:44:43;1.60;99.90
15013;DHT22;7603;49.432;11.418;2023-01-28T08:47:08;1.60;99.90
15013;DHT22;7603;49.432;11.418;2023-01-28T08:49:34;1.60;99.90
15013;DHT22;7603;49.432;11.418;2023-01-28T08:51:59;1.70;99.90
15013;DHT22;7603;49.432;11.418;2023-01-28T08:54:25;1.70;99.90
15013;DHT22;7603;49.432;11.418;2023-01-28T08:56:50;1.80;99.90
15013;DHT22;7603;49.432;11.418;2023-01-28T08:59:17;1.80;99.90
15013;DHT22;7603;49.432;11.418;2023-01-28T09:01:43;1.90;99.90
15013;DHT22;7603;49.432;11.418;2023-01-28T09:04:08;2.00;99.90
15013;DHT22;7603;49.432;11.418;2023-01-28T09:06:34;2.10;99.90
15013;DHT22;7603;49.432;11.418;2023-01-28T09:09:00;2.10;99.90
15013;DHT22;7603;49.432;11.418;2023-01-28T09:11:26;2.10;99.90
15013;DHT22;7603;49.432;11.418;2023-01-28T09:13:52;2.20;99.90
15013;DHT22;7603;49.432;11.418;2023-01-28T09:16:18;2.20;99.90
15013;DHT22;7603;49.432;11.418;2023-01-28T09:18:44;2.30;99.90
15013;DHT22;7603;49.432;11.418;2023-01-28T09:21:10;2.40;99.90
15013;DHT22;7603;49.432;11.418;2023-01-28T09:23:36;2.40;99.90
15013;DHT22;7603;49.432;11.418;2023-01-28T09:26:04;2.50;99.90
15013;DHT22;7603;49.432;11.418;2023-01-28T09:28:30;2.50;99.90
15013;DHT22;7603;49.432;11.418;2023-01-28T09:31:03;2.50;99.90
15013;DHT22;7603;49.432;11.418;2023-01-28T09:33:29;2.60;99.90
15013;DHT22;7603;49.432;11.418;2023-01-28T09:35:57;2.60;99.90
15013;DHT22;7603;49.432;11.418;2023-01-28T09:38:23;2.70;99.90
15013;DHT22;7603;49.432;11.418;2023-01-28T09:40:49;2.70;99.90
15013;DHT22;7603;49.432;11.418;2023-01-28T09:45:46;2.70;99.90
15013;DHT22;7603;49.432;11.418;2023-01-28T09:48:15;2.70;99.90
15013;DHT22;7603;49.432;11.418;2023-01-28T09:50:44;2.70;99.90
15013;DHT22;7603;49.432;11.418;2023-01-28T09:53:23;2.70;99.90
15013;DHT22;7603;49.432;11.418;2023-01-28T09:55:54;2.60;99.90
15013;DHT22;7603;49.432;11.418;2023-01-28T09:58:20;2.50;99.90
15013;DHT22;7603;49.432;11.418;2023-01-28T10:09:32;2.50;99.90
15013;DHT22;7603;49.432;11.418;2023-01-28T10:17:48;2.60;99.90
15013;DHT22;7603;49.432;11.418;2023-01-28T10:20:22;2.60;99.90
15013;DHT22;7603;49.432;11.418;2023-01-28T10:25:47;2.70;99.90
15013;DHT22;7603;49.432;11.418;2023-01-28T10:28:27;2.70;99.90
15013;DHT22;7603;49.432;11.418;2023-01-28T10:30:53;2.70;99.90
15013;DHT22;7603;49.432;11.418;2023-01-28T10:33:34;2.80;99.90
15013;DHT22;7603;49.432;11.418;2023-01-28T10:36:00;2.80;99.90
15013;DHT22;7603;49.432;11.418;2023-01-28T10:38:26;2.80;99.90
15013;DHT22;7603;49.432;11.418;2023-01-28T10:40:54;2.70;99.90
15013;DHT22;7603;49.432;11.418;2023-01-28T10:43:24;2.80;99.90
15013;DHT22;7603;49.432;11.418;2023-01-28T10:48:23;2.90;99.90
15013;DHT22;7603;49.432;11.418;2023-01-28T10:50:53;2.90;99.90
15013;DHT22;7603;49.432;11.418;2023-01-28T10:53:35;3.00;99.90
15013;DHT22;7603;49.432;11.418;2023-01-28T10:56:03;3.10;99.90
15013;DHT22;7603;49.432;11.418;2023-01-28T10:58:32;3.20;99.90
15013;DHT22;7603;49.432;11.418;2023-01-28T11:01:04;3.30;99.90
15013;DHT22;7603;49.432;11.418;2023-01-28T11:03:30;3.60;99.90
15013;DHT22;7603;49.432;11.418;2023-01-28T11:05:57;3.60;99.90
15013;DHT22;7603;49.432;11.418;2023-01-28T11:08:28;3.80;99.90
15013;DHT22;7603;49.432;11.418;2023-01-28T11:10:55;3.90;99.90
15013;DHT22;7603;49.432;11.418;2023-01-28T11:15:54;3.90;99.90
15013;DHT22;7603;49.432;11.418;2023-01-28T11:18:30;3.90;99.90
15013;DHT22;7603;49.432;11.418;2023-01-28T11:20:59;3.90;99.90
15013;DHT22;7603;49.432;11.418;2023-01-28T11:23:28;3.80;99.90
15013;DHT22;7603;49.432;11.418;2023-01-28T11:26:04;3.70;99.90
15013;DHT22;7603;49.432;11.418;2023-01-28T11:28:31;3.50;99.90
15013;DHT22;7603;49.432;11.418;2023-01-28T11:30:59;3.40;99.90
15013;DHT22;7603;49.432;11.418;2023-01-28T11:33:33;3.30;99.90
15013;DHT22;7603;49.432;11.418;2023-01-28T11:36:15;3.20;99.90
15013;DHT22;7603;49.432;11.418;2023-01-28T11:41:42;3.00;99.90
15013;DHT22;7603;49.432;11.418;2023-01-28T11:44:24;2.90;99.90
15013;DHT22;7603;49.432;11.418;2023-01-28T11:50:15;2.80;99.90
15013;DHT22;7603;49.432;11.418;2023-01-28T12:02:17;3.10;99.90
15013;DHT22;7603;49.432;11.418;2023-01-28T12:06:59;3.20;99.90
15013;DHT22;7603;49.432;11.418;2023-01-28T12:33:53;3.50;99.90
15013;DHT22;7603;49.432;11.418;2023-01-28T12:41:42;3.50;99.90
15013;DHT22;7603;49.432;11.418;2023-01-28T12:44:18;3.60;99.90
15013;DHT22;7603;49.432;11.418;2023-01-28T12:46:52;3.60;99.90
15013;DHT22;7603;49.432;11.418;2023-01-28T12:49:55;3.60;99.90
15013;DHT22;7603;49.432;11.418;2023-01-28T12:52:32;3.60;99.90
15013;DHT22;7603;49.432;11.418;2023-01-28T12:55:21;3.60;99.90
15013;DHT22;7603;49.432;11.418;2023-01-28T12:57:56;3.60;99.90
15013;DHT22;7603;49.432;11.418;2023-01-28T13:00:29;3.60;99.90
15013;DHT22;7603;49.432;11.418;2023-01-28T13:05:42;3.60;99.90
15013;DHT22;7603;49.432;11.418;2023-01-28T13:08:35;3.60;99.90
15013;DHT22;7603;49.432;11.418;2023-01-28T13:11:02;3.60;99.90
15013;DHT22;7603;49.432;11.418;2023-01-28T13:13:37;3.50;99.90
15013;DHT22;7603;49.432;11.418;2023-01-28T13:16:05;3.50;99.90
15013;DHT22;7603;49.432;11.418;2023-01-28T13:21:27;3.40;99.90
15013;DHT22;7603;49.432;11.418;2023-01-28T13:26:56;3.30;99.90
15013;DHT22;7603;49.432;11.418;2023-01-28T13:29:29;3.30;99.90
15013;DHT22;7603;49.432;11.418;2023-01-28T13:31:58;3.30;99.90
15013;DHT22;7603;49.432;11.418;2023-01-28T13:37:20;3.30;99.90
15013;DHT22;7603;49.432;11.418;2023-01-28T13:39:59;3.30;99.90
15013;DHT22;7603;49.432;11.418;2023-01-28T13:42:29;3.30;99.90
15013;DHT22;7603;49.432;11.418;2023-01-28T13:44:55;3.20;99.90
15013;DHT22;7603;49.432;11.418;2023-01-28T13:47:33;3.20;99.90
15013;DHT22;7603;49.432;11.418;2023-01-28T13:50:06;3.20;99.90
15013;DHT22;7603;49.432;11.418;2023-01-28T13:52:43;3.20;99.90
15013;DHT22;7603;49.432;11.418;2023-01-28T14:05:53;3.30;99.90
15013;DHT22;7603;49.432;11.418;2023-01-28T14:19:42;3.40;99.90
15013;DHT22;7603;49.432;11.418;2023-01-28T14:22:12;3.40;99.90
15013;DHT22;7603;49.432;11.418;2023-01-28T14:24:40;3.40;99.90
15013;DHT22;7603;49.432;11.418;2023-01-28T14:32:25;3.70;99.90
15013;DHT22;7603;49.432;11.418;2023-01-28T14:34:53;3.70;99.90
15013;DHT22;7603;49.432;11.418;2023-01-28T14:37:23;3.70;99.90
15013;DHT22;7603;49.432;11.418;2023-01-28T14:40:05;3.60;99.90
15013;DHT22;7603;49.432;11.418;2023-01-28T14:58:59;3.00;99.90
15013;DHT22;7603;49.432;11.418;2023-01-28T15:01:28;2.90;99.90
15013;DHT22;7603;49.432;11.418;2023-01-28T15:03:55;2.90;99.90
15013;DHT22;7603;49.432;11.418;2023-01-28T15:06:23;2.80;99.90
15013;DHT22;7603;49.432;11.418;2023-01-28T15:08:52;2.70;99.90
15013;DHT22;7603;49.432;11.418;2023-01-28T15:11:25;2.70;99.90
15013;DHT22;7603;49.432;11.418;2023-01-28T15:13:56;2.60;99.90
15013;DHT22;7603;49.432;11.418;2023-01-28T15:16:25;2.50;99.90
15013;DHT22;7603;49.432;11.418;2023-01-28T15:18:53;2.50;99.90
15013;DHT22;7603;49.432;11.418;2023-01-28T15:21:21;2.40;99.90
15013;DHT22;7603;49.432;11.418;2023-01-28T15:23:58;2.40;99.90
15013;DHT22;7603;49.432;11.418;2023-01-28T15:26:26;2.30;99.90
15013;DHT22;7603;49.432;11.418;2023-01-28T15:28:54;2.20;99.90
15013;DHT22;7603;49.432;11.418;2023-01-28T15:31:26;2.20;99.90
15013;DHT22;7603;49.432;11.418;2023-01-28T15:34:10;2.10;99.90
15013;DHT22;7603;49.432;11.418;2023-01-28T15:36:37;2.00;99.90
15013;DHT22;7603;49.432;11.418;2023-01-28T15:39:03;1.90;99.90
15013;DHT22;7603;49.432;11.418;2023-01-28T15:41:38;1.90;99.90
15013;DHT22;7603;49.432;11.418;2023-01-28T15:44:14;1.80;99.90
15013;DHT22;7603;49.432;11.418;2023-01-28T15:46:40;1.80;99.90
15013;DHT22;7603;49.432;11.418;2023-01-28T15:49:05;1.70;99.90
15013;DHT22;7603;49.432;11.418;2023-01-28T15:51:32;1.70;99.90
15013;DHT22;7603;49.432;11.418;2023-01-28T15:54:08;1.60;99.90
15013;DHT22;7603;49.432;11.418;2023-01-28T15:56:34;1.60;99.90
15013;DHT22;7603;49.432;11.418;2023-01-28T15:59:26;1.60;99.90
15013;DHT22;7603;49.432;11.418;2023-01-28T16:02:23;1.50;99.90
15013;DHT22;7603;49.432;11.418;2023-01-28T16:05:03;1.40;99.90
15013;DHT22;7603;49.432;11.418;2023-01-28T16:07:32;1.40;99.90
15013;DHT22;7603;49.432;11.418;2023-01-28T16:10:22;1.40;99.90
15013;DHT22;7603;49.432;11.418;2023-01-28T16:12:51;1.30;99.90
15013;DHT22;7603;49.432;11.418;2023-01-28T16:15:19;1.30;99.90
15013;DHT22;7603;49.432;11.418;2023-01-28T16:17:47;1.20;99.90
15013;DHT22;7603;49.432;11.418;2023-01-28T16:20:27;1.20;99.90
15013;DHT22;7603;49.432;11.418;2023-01-28T16:23:04;1.20;99.90
15013;DHT22;7603;49.432;11.418;2023-01-28T16:25:40;1.10;99.90
15013;DHT22;7603;49.432;11.418;2023-01-28T16:28:17;1.00;99.90
15013;DHT22;7603;49.432;11.418;2023-01-28T16:30:43;1.00;99.90
15013;DHT22;7603;49.432;11.418;2023-01-28T16:33:19;0.90;99.90
15013;DHT22;7603;49.432;11.418;2023-01-28T16:35:45;0.90;99.90
15013;DHT22;7603;49.432;11.418;2023-01-28T16:38:10;0.90;99.90
15013;DHT22;7603;49.432;11.418;2023-01-28T16:40:45;0.90;99.90
15013;DHT22;7603;49.432;11.418;2023-01-28T16:43:11;0.90;99.90
15013;DHT22;7603;49.432;11.418;2023-01-28T16:45:38;0.90;99.90
15013;DHT22;7603;49.432;11.418;2023-01-28T16:48:03;0.90;99.90
15013;DHT22;7603;49.432;11.418;2023-01-28T16:50:30;0.90;99.90
15013;DHT22;7603;49.432;11.418;2023-01-28T16:52:57;0.90;99.90
15013;DHT22;7603;49.432;11.418;2023-01-28T16:55:22;0.90;99.90
15013;DHT22;7603;49.432;11.418;2023-01-28T16:57:50;0.80;99.90
15013;DHT22;7603;49.432;11.418;2023-01-28T17:00:22;0.80;99.90
15013;DHT22;7603;49.432;11.418;2023-01-28T17:02:49;0.80;99.90
15013;DHT22;7603;49.432;11.418;2023-01-28T17:05:15;0.80;99.90
15013;DHT22;7603;49.432;11.418;2023-01-28T17:07:41;0.80;99.90
15013;DHT22;7603;49.432;11.418;2023-01-28T17:10:08;0.80;99.90
15013;DHT22;7603;49.432;11.418;2023-01-28T17:12:33;0.70;99.90
15013;DHT22;7603;49.432;11.418;2023-01-28T17:14:59;0.70;99.90
15013;DHT22;7603;49.432;11.418;2023-01-28T17:17:25;0.70;99.90
15013;DHT22;7603;49.432;11.418;2023-01-28T17:19:50;0.60;99.90
15013;DHT22;7603;49.432;11.418;2023-01-28T17:22:16;0.50;99.90
15013;DHT22;7603;49.432;11.418;2023-01-28T17:24:42;0.50;99.90
15013;DHT22;7603;49.432;11.418;2023-01-28T17:27:07;0.40;99.90
15013;DHT22;7603;49.432;11.418;2023-01-28T17:29:34;0.30;99.90
15013;DHT22;7603;49.432;11.418;2023-01-28T17:31:59;0.20;99.90
15013;DHT22;7603;49.432;11.418;2023-01-28T17:34:25;0.20;99.90
15013;DHT22;7603;49.432;11.418;2023-01-28T17:36:51;0.10;99.90
15013;DHT22;7603;49.432;11.418;2023-01-28T17:39:16;0.10;99.90
15013;DHT22;7603;49.432;11.418;2023-01-28T17:41:42;0.10;99.90
15013;DHT22;7603;49.432;11.418;2023-01-28T17:44:11;0.10;99.90
15013;DHT22;7603;49.432;11.418;2023-01-28T17:46:36;0.10;99.90
15013;DHT22;7603;49.432;11.418;2023-01-28T17:49:02;0.00;99.90
15013;DHT22;7603;49.432;11.418;2023-01-28T17:51:28;0.10;99.90
15013;DHT22;7603;49.432;11.418;2023-01-28T17:53:53;0.10;99.90
15013;DHT22;7603;49.432;11.418;2023-01-28T17:56:25;0.10;99.90
15013;DHT22;7603;49.432;11.418;2023-01-28T17:58:59;0.10;99.90
15013;DHT22;7603;49.432;11.418;2023-01-28T18:01:29;0.10;99.90
15013;DHT22;7603;49.432;11.418;2023-01-28T18:03:55;0.00;99.90
15013;DHT22;7603;49.432;11.418;2023-01-28T18:06:21;0.10;99.90
15013;DHT22;7603;49.432;11.418;2023-01-28T18:08:46;0.00;99.90
15013;DHT22;7603;49.432;11.418;2023-01-28T18:11:14;0.10;99.90
15013;DHT22;7603;49.432;11.418;2023-01-28T18:13:41;0.00;99.90
15013;DHT22;7603;49.432;11.418;2023-01-28T18:16:11;0.00;99.90
15013;DHT22;7603;49.432;11.418;2023-01-28T18:18:39;0.00;99.90
15013;DHT22;7603;49.432;11.418;2023-01-28T18:21:06;0.00;99.90
15013;DHT22;7603;49.432;11.418;2023-01-28T18:23:32;0.00;99.90